Time;durP1;ratioP1;P1;durP2;ratioP2;P2;SDS_P1;SDS_P2;PMS_P1;PMS_P2;Temp;Humidity;BMP_temperature;BMP_pressure;BME280_temperature;BME280_humidity;BME280_pressure;Samples;Min_cycle;Max_cycle;Signal;HPM_P1;HPM_P2
2022/01/25 00:34:56;;;;;;;7.10;3.97;;;;;;;;;;20830362;28;20053;-66
2022/01/25 00:44:59;;;;;;;6.60;3.70;;;;;;;;;;20830493;28;20054;-68
2022/01/25 00:55:02;;;;;;;5.35;2.80;;;;;;;;;;20829447;28;20054;-62
2022/01/25 01:05:04;;;;;;;6.22;2.92;;;;;;;;;;20829868;28;20183;-60
2022/01/25 01:36:19;;;;;;;5.03;3.10;;;;;;;;;;20841930;28;20496;-60
2022/01/25 01:56:13;;;;;;;4.13;2.80;;;;;;;;;;20840026;28;20053;-62
2022/01/25 02:06:15;;;;;;;4.65;2.60;;;;;;;;;;20841362;28;20046;-59
2022/01/25 02:26:43;;;;;;;7.73;3.07;;;;;;;;;;20666824;28;20056;-61
2022/01/25 02:36:45;;;;;;;4.65;2.70;;;;;;;;;;20666275;28;20727;-60
2022/01/25 02:56:51;;;;;;;3.35;2.20;;;;;;;;;;20698778;28;20061;-64
2022/01/25 03:06:55;;;;;;;4.53;2.20;;;;;;;;;;20835317;28;20057;-60
2022/01/25 03:27:03;;;;;;;3.15;2.00;;;;;;;;;;20833629;28;20103;-70
2022/01/25 03:37:05;;;;;;;1.98;1.52;;;;;;;;;;20832036;28;20045;-68
2022/01/25 03:47:12;;;;;;;3.08;2.08;;;;;;;;;;20832801;28;20120;-70
2022/01/25 03:57:15;;;;;;;;;;;;;;;;;;20835243;28;20060;-65
2022/01/25 04:07:26;;;;;;;4.13;2.08;;;;;;;;;;20831908;28;19921;-60
2022/01/25 04:17:29;;;;;;;2.35;1.80;;;;;;;;;;20833904;28;20446;-62
2022/01/25 04:27:31;;;;;;;3.38;2.55;;;;;;;;;;20830300;28;20046;-60
2022/01/25 04:58:36;;;;;;;2.40;1.83;;;;;;;;;;20674193;28;20061;-59
2022/01/25 05:08:44;;;;;;;3.30;2.20;;;;;;;;;;20672852;28;20062;-65
2022/01/25 05:18:49;;;;;;;3.38;2.70;;;;;;;;;;20716449;28;20061;-61
2022/01/25 05:28:53;;;;;;;2.50;1.88;;;;;;;;;;20843250;28;20077;-63
2022/01/25 05:38:58;;;;;;;2.78;1.85;;;;;;;;;;20841715;28;20057;-61
2022/01/25 05:48:59;;;;;;;3.63;1.90;;;;;;;;;;20841881;28;20129;-60
2022/01/25 05:59:01;;;;;;;2.60;1.92;;;;;;;;;;20839992;28;20049;-59
2022/01/25 06:09:05;;;;;;;3.95;2.35;;;;;;;;;;20840979;28;20052;-60
2022/01/25 06:19:08;;;;;;;4.65;2.55;;;;;;;;;;20839052;28;20486;-69
2022/01/25 06:29:11;;;;;;;3.08;2.20;;;;;;;;;;20839354;28;20053;-67
2022/01/25 06:39:15;;;;;;;3.50;2.13;;;;;;;;;;20837761;28;20058;-71
2022/01/25 06:49:38;;;;;;;5.25;1.95;;;;;;;;;;20840515;28;20176;-61
2022/01/25 06:59:41;;;;;;;4.88;2.00;;;;;;;;;;20835851;28;20053;-60
2022/01/25 07:09:42;;;;;;;2.97;1.67;;;;;;;;;;20834813;28;20056;-62
2022/01/25 07:19:48;;;;;;;5.63;1.75;;;;;;;;;;20833565;28;20406;-60
2022/01/25 07:29:49;;;;;;;2.80;1.90;;;;;;;;;;20833268;28;20053;-59
2022/01/25 07:39:52;;;;;;;4.82;2.25;;;;;;;;;;20832737;28;20058;-61
2022/01/25 07:49:54;;;;;;;10.20;2.40;;;;;;;;;;20831144;28;20119;-59
2022/01/25 07:59:58;;;;;;;12.20;4.47;;;;;;;;;;20831433;28;20057;-60
2022/01/25 08:10:00;;;;;;;8.18;2.50;;;;;;;;;;20831575;28;20474;-60
2022/01/25 08:20:02;;;;;;;6.97;2.33;;;;;;;;;;20832902;28;20460;-60
2022/01/25 08:30:05;;;;;;;20.90;3.92;;;;;;;;;;20857608;28;20042;-60
2022/01/25 08:40:08;;;;;;;5.47;2.83;;;;;;;;;;20858000;28;20132;-60
2022/01/25 08:50:13;;;;;;;6.82;3.17;;;;;;;;;;20857611;28;20050;-62
2022/01/25 09:00:15;;;;;;;6.77;3.50;;;;;;;;;;20857737;28;20504;-65
2022/01/25 09:10:18;;;;;;;6.25;3.50;;;;;;;;;;20856415;28;20164;-59
2022/01/25 09:20:20;;;;;;;5.05;3.10;;;;;;;;;;20854254;28;20064;-60
2022/01/25 09:30:23;;;;;;;4.32;1.92;;;;;;;;;;20857494;28;20048;-59
2022/01/25 09:40:25;;;;;;;3.97;1.92;;;;;;;;;;20846627;28;20143;-67
2022/01/25 09:50:28;;;;;;;3.85;2.20;;;;;;;;;;20840765;28;20130;-59
2022/01/25 10:00:31;;;;;;;8.80;2.00;;;;;;;;;;20841467;28;20057;-65
2022/01/25 10:10:34;;;;;;;4.63;1.77;;;;;;;;;;20839393;28;20053;-61
2022/01/25 10:20:37;;;;;;;6.30;2.75;;;;;;;;;;20837900;28;20116;-61
2022/01/25 10:30:53;;;;;;;4.50;1.80;;;;;;;;;;20837731;28;20119;-61
2022/01/25 10:40:59;;;;;;;5.00;2.53;;;;;;;;;;20836906;28;20049;-60
2022/01/25 10:51:11;;;;;;;8.27;1.70;;;;;;;;;;20835525;28;20049;-59
2022/01/25 11:01:12;;;;;;;2.72;1.95;;;;;;;;;;20835212;28;20056;-63
2022/01/25 11:11:25;;;;;;;4.65;1.98;;;;;;;;;;20834714;28;20501;-58
2022/01/25 11:21:27;;;;;;;16.52;4.13;;;;;;;;;;20814127;28;20055;-58
2022/01/25 11:31:29;;;;;;;21.50;4.05;;;;;;;;;;20767497;28;20096;-58
2022/01/25 11:41:34;;;;;;;5.05;1.70;;;;;;;;;;20749353;28;20052;-58
2022/01/25 11:51:36;;;;;;;5.35;1.95;;;;;;;;;;20748816;28;20474;-63
2022/01/25 12:01:38;;;;;;;9.02;2.35;;;;;;;;;;20747447;28;20089;-58
2022/01/25 12:11:42;;;;;;;5.22;2.00;;;;;;;;;;20747735;28;20132;-62
2022/01/25 12:21:51;;;;;;;4.78;1.90;;;;;;;;;;20747528;28;20066;-68
2022/01/25 12:31:52;;;;;;;4.13;2.25;;;;;;;;;;20747186;28;20050;-62
2022/01/25 12:41:58;;;;;;;2.95;2.00;;;;;;;;;;20746826;28;20111;-60
2022/01/25 12:51:59;;;;;;;5.32;2.30;;;;;;;;;;20746747;28;20105;-58
2022/01/25 13:02:01;;;;;;;4.82;1.95;;;;;;;;;;20746303;28;20069;-67
2022/01/25 13:22:07;;;;;;;3.45;1.70;;;;;;;;;;20778795;28;20057;-65
2022/01/25 13:32:13;;;;;;;4.72;1.70;;;;;;;;;;20784526;28;20116;-70
2022/01/25 13:42:20;;;;;;;4.53;2.00;;;;;;;;;;20773748;28;20083;-65
2022/01/25 13:52:21;;;;;;;3.25;1.70;;;;;;;;;;20844602;28;20030;-68
2022/01/25 14:02:22;;;;;;;3.40;1.38;;;;;;;;;;20766301;28;20133;-67
2022/01/25 14:33:06;;;;;;;4.32;1.40;;;;;;;;;;20753884;28;20100;-68
2022/01/25 14:43:09;;;;;;;4.10;1.92;;;;;;;;;;20753276;28;20414;-67
2022/01/25 14:53:12;;;;;;;3.90;1.17;;;;;;;;;;20752761;28;20053;-67
2022/01/25 15:03:14;;;;;;;2.85;1.00;;;;;;;;;;20762506;28;20073;-67
2022/01/25 15:13:24;;;;;;;3.42;1.80;;;;;;;;;;20753903;28;20100;-66
2022/01/25 15:23:28;;;;;;;3.53;1.35;;;;;;;;;;20752057;28;20057;-66
2022/01/25 15:33:30;;;;;;;3.90;1.50;;;;;;;;;;20751651;28;20042;-67
2022/01/25 15:43:37;;;;;;;3.45;1.20;;;;;;;;;;20750833;28;20053;-67
2022/01/25 15:53:39;;;;;;;1.92;1.00;;;;;;;;;;20749770;28;20096;-68
2022/01/25 16:03:41;;;;;;;4.50;1.95;;;;;;;;;;20750336;28;20176;-69
2022/01/25 16:13:44;;;;;;;5.03;2.05;;;;;;;;;;20749665;28;20093;-68
2022/01/25 16:23:47;;;;;;;8.18;4.60;;;;;;;;;;20749624;28;20049;-67
2022/01/25 16:33:51;;;;;;;5.15;1.70;;;;;;;;;;20749160;28;20057;-68
2022/01/25 16:43:53;;;;;;;2.55;1.30;;;;;;;;;;20754102;28;20054;-67
2022/01/25 16:53:56;;;;;;;3.03;1.50;;;;;;;;;;20765124;28;20049;-60
2022/01/25 17:03:57;;;;;;;6.43;3.03;;;;;;;;;;20800799;28;20417;-58
2022/01/25 17:14:01;;;;;;;4.88;2.10;;;;;;;;;;20822850;28;20057;-61
2022/01/25 17:24:03;;;;;;;8.80;3.40;;;;;;;;;;20801994;28;20520;-62
2022/01/25 17:34:06;;;;;;;11.18;3.92;;;;;;;;;;20815994;28;20103;-65
2022/01/25 17:44:08;;;;;;;6.45;3.13;;;;;;;;;;20840807;28;20049;-67
2022/01/25 17:54:11;;;;;;;9.18;3.65;;;;;;;;;;20838499;28;20050;-65
2022/01/25 18:04:13;;;;;;;10.70;6.32;;;;;;;;;;20839041;28;20053;-65
2022/01/25 18:14:16;;;;;;;8.13;2.80;;;;;;;;;;20838317;28;20050;-66
2022/01/25 18:24:22;;;;;;;7.50;3.95;;;;;;;;;;20837439;28;20394;-56
2022/01/25 18:34:24;;;;;;;7.22;3.80;;;;;;;;;;20837424;28;20421;-57
2022/01/25 18:44:27;;;;;;;4.93;2.92;;;;;;;;;;20835122;28;20112;-58
2022/01/25 18:54:29;;;;;;;5.45;2.45;;;;;;;;;;20834607;28;20500;-58
2022/01/25 19:04:30;;;;;;;6.68;2.90;;;;;;;;;;20832608;28;20507;-60
2022/01/25 19:14:33;;;;;;;10.20;4.75;;;;;;;;;;20834100;28;20045;-60
2022/01/25 19:24:35;;;;;;;7.03;2.97;;;;;;;;;;20832249;28;20049;-59
2022/01/25 19:34:37;;;;;;;5.97;2.40;;;;;;;;;;20831362;28;20049;-56
2022/01/25 19:44:39;;;;;;;8.10;3.33;;;;;;;;;;20831030;28;20081;-60
2022/01/25 19:54:42;;;;;;;7.95;4.13;;;;;;;;;;20830480;28;20081;-59
2022/01/25 20:04:44;;;;;;;5.90;3.25;;;;;;;;;;20828956;28;20351;-57
2022/01/25 20:14:50;;;;;;;6.32;3.35;;;;;;;;;;20828715;28;20055;-57
2022/01/25 20:25:10;;;;;;;10.82;5.93;;;;;;;;;;20828360;28;20077;-58
2022/01/25 20:35:14;;;;;;;9.00;5.35;;;;;;;;;;20828513;28;20057;-57
2022/01/25 20:45:16;;;;;;;7.88;3.70;;;;;;;;;;20829491;28;20055;-59
2022/01/25 20:55:18;;;;;;;9.05;3.97;;;;;;;;;;20828699;28;20054;-59
2022/01/25 21:15:40;;;;;;;9.35;3.72;;;;;;;;;;20827277;28;20421;-59
2022/01/25 21:25:42;;;;;;;8.90;3.80;;;;;;;;;;20827020;28;20062;-59
2022/01/25 21:35:47;;;;;;;8.35;4.28;;;;;;;;;;20839604;28;20383;-67
2022/01/25 21:45:49;;;;;;;10.65;6.20;;;;;;;;;;20843017;28;20053;-58
2022/01/25 21:55:51;;;;;;;6.70;4.50;;;;;;;;;;20840502;28;20060;-59
2022/01/25 22:05:59;;;;;;;9.93;4.50;;;;;;;;;;20840100;28;20049;-56
2022/01/25 22:16:01;;;;;;;8.02;4.28;;;;;;;;;;20838984;28;20630;-60
2022/01/25 22:26:07;;;;;;;5.85;3.75;;;;;;;;;;20838444;28;20382;-59
2022/01/25 22:36:08;;;;;;;6.57;4.40;;;;;;;;;;20838737;28;20056;-60
2022/01/25 22:46:10;;;;;;;9.68;5.35;;;;;;;;;;20835924;28;20053;-61
2022/01/25 22:56:12;;;;;;;8.43;4.45;;;;;;;;;;20836158;28;20045;-57
2022/01/25 23:06:14;;;;;;;5.68;3.60;;;;;;;;;;20835629;28;20050;-58
2022/01/25 23:26:47;;;;;;;7.45;4.10;;;;;;;;;;20825704;28;20057;-65
2022/01/25 23:36:51;;;;;;;9.18;4.28;;;;;;;;;;20829490;28;20053;-57
2022/01/25 23:46:56;;;;;;;8.68;4.80;;;;;;;;;;20836660;28;20478;-67
